createdAt,value
2022-08-12T00:00:45.902Z,2.30
2022-08-12T00:03:40.926Z,2.10
2022-08-12T00:06:47.080Z,2.72
2022-08-12T00:09:36.975Z,2.25
2022-08-12T00:12:40.702Z,2.30
2022-08-12T00:15:39.471Z,2.10
2022-08-12T00:18:37.128Z,2.30
2022-08-12T00:21:27.411Z,1.98
2022-08-12T00:24:35.021Z,2.38
2022-08-12T00:27:56.977Z,2.30
2022-08-12T00:31:37.434Z,2.30
2022-08-12T00:34:44.774Z,2.35
2022-08-12T00:37:36.322Z,2.50
2022-08-12T00:40:39.484Z,2.00
2022-08-12T00:43:27.165Z,2.05
2022-08-12T00:46:18.089Z,2.03
2022-08-12T00:49:00.324Z,2.15
2022-08-12T00:51:55.361Z,2.27
2022-08-12T00:54:27.644Z,1.95
2022-08-12T00:57:17.539Z,2.20
2022-08-12T00:59:57.024Z,2.30
2022-08-12T01:02:44.125Z,2.47
2022-08-12T01:05:40.844Z,2.20
2022-08-12T01:08:37.046Z,2.00
2022-08-12T01:11:35.619Z,2.30
2022-08-12T01:14:07.138Z,2.25
2022-08-12T01:16:39.136Z,2.30
2022-08-12T01:23:17.161Z,2.22
2022-08-12T01:26:00.025Z,2.30
2022-08-12T01:29:05.197Z,2.08
2022-08-12T01:31:38.792Z,2.20
2022-08-12T01:34:41.000Z,2.05
2022-08-12T01:37:23.450Z,2.33
2022-08-12T01:40:35.377Z,2.28
2022-08-12T01:42:52.111Z,2.25
2022-08-12T01:54:20.514Z,2.20
2022-08-12T01:57:57.647Z,2.40
2022-08-12T02:00:36.014Z,2.13
2022-08-12T02:03:32.576Z,2.25
2022-08-12T02:06:37.288Z,2.80
2022-08-12T02:09:43.260Z,2.70
2022-08-12T02:12:59.130Z,2.70
2022-08-12T02:19:53.326Z,2.53
2022-08-12T02:22:49.036Z,2.67
2022-08-12T02:25:37.746Z,2.80
2022-08-12T02:28:10.048Z,2.83
2022-08-12T02:31:06.209Z,2.80
2022-08-12T02:33:49.557Z,2.67
2022-08-12T02:36:48.462Z,2.80
2022-08-12T02:40:04.760Z,2.70
2022-08-12T02:42:48.318Z,2.78
2022-08-12T02:45:27.285Z,2.63
2022-08-12T02:48:05.017Z,2.67
2022-08-12T02:50:44.457Z,2.40
2022-08-12T02:53:21.133Z,2.60
2022-08-12T02:55:51.453Z,2.40
2022-08-12T02:58:30.669Z,2.63
2022-08-12T03:01:20.750Z,2.50
2022-08-12T03:03:53.552Z,2.30
2022-08-12T03:06:32.995Z,2.42
2022-08-12T04:35:42.790Z,2.40
2022-08-12T05:15:30.708Z,2.50
2022-08-12T05:18:19.381Z,2.53
2022-08-12T05:21:26.257Z,2.55
2022-08-12T05:24:32.979Z,2.55
2022-08-12T05:27:32.709Z,2.40
2022-08-12T05:30:37.749Z,2.50
2022-08-12T05:33:36.722Z,2.40
2022-08-12T05:37:10.043Z,2.28
2022-08-12T05:40:11.012Z,2.72
2022-08-12T05:53:00.424Z,2.50
2022-08-12T06:00:05.355Z,2.38
2022-08-12T06:03:05.416Z,2.53
2022-08-12T06:05:55.415Z,2.35
2022-08-12T06:09:30.110Z,2.40
2022-08-12T06:12:14.540Z,2.35
2022-08-12T06:15:02.711Z,2.40
2022-08-12T06:21:29.641Z,2.50
2022-08-12T06:24:36.241Z,2.30
2022-08-12T06:27:37.416Z,2.50
2022-08-12T06:31:24.868Z,2.58
2022-08-12T06:33:57.555Z,2.60
2022-08-12T06:37:36.107Z,2.47
2022-08-12T06:41:40.577Z,2.50
2022-08-12T06:45:21.136Z,2.33
2022-08-12T06:48:41.535Z,2.38
2022-08-12T06:56:39.907Z,2.35
2022-08-12T06:59:36.595Z,2.30
2022-08-12T07:03:27.550Z,2.60
2022-08-12T07:11:36.922Z,2.22
2022-08-12T07:14:25.333Z,2.13
2022-08-12T07:30:52.428Z,2.00
2022-08-12T07:33:29.598Z,2.20
2022-08-12T07:36:03.951Z,2.15
2022-08-12T07:38:36.279Z,2.45
2022-08-12T07:41:20.589Z,2.30
2022-08-12T07:44:01.205Z,2.00
2022-08-12T07:46:44.513Z,2.47
2022-08-12T07:49:31.503Z,2.10
2022-08-12T07:52:10.253Z,2.20
2022-08-12T07:54:49.367Z,2.08
2022-08-12T08:00:23.175Z,1.98
2022-08-12T08:03:16.587Z,2.03
2022-08-12T08:05:49.531Z,2.15
2022-08-12T08:08:43.947Z,2.30
2022-08-12T08:12:06.151Z,2.35
2022-08-12T08:14:43.721Z,2.20
2022-08-12T08:17:28.457Z,2.13
2022-08-12T08:20:03.814Z,2.35
2022-08-12T08:22:49.487Z,2.15
2022-08-12T08:25:37.643Z,2.35
2022-08-12T08:28:18.987Z,2.40
2022-08-12T08:31:14.617Z,2.10
2022-08-12T08:34:54.832Z,2.03
2022-08-12T08:37:40.492Z,2.30
2022-08-12T08:40:56.867Z,2.13
2022-08-12T08:43:43.260Z,2.20
2022-08-12T08:46:17.038Z,2.00
2022-08-12T08:48:59.487Z,2.00
2022-08-12T08:51:39.707Z,1.98
2022-08-12T08:54:28.925Z,2.00
2022-08-12T08:57:05.706Z,1.90
2022-08-12T09:00:01.263Z,1.98
2022-08-12T09:02:49.033Z,1.92
2022-08-12T09:06:02.744Z,2.03
2022-08-12T09:08:36.734Z,2.03
2022-08-12T09:14:51.403Z,2.10
2022-08-12T09:17:42.952Z,1.77
2022-08-12T09:20:21.540Z,1.88
2022-08-12T09:23:59.274Z,1.80
2022-08-12T09:30:08.949Z,1.90
2022-08-12T09:33:08.634Z,2.00
2022-08-12T09:36:13.899Z,1.90
2022-08-12T09:40:02.465Z,1.70
2022-08-12T09:49:45.774Z,1.80
2022-08-12T09:53:29.326Z,1.42
2022-08-12T09:56:58.683Z,1.75
2022-08-12T10:00:16.688Z,1.42
2022-08-12T10:03:55.578Z,1.88
2022-08-12T10:07:40.061Z,1.70
2022-08-12T10:17:09.055Z,1.50
2022-08-12T10:20:04.694Z,1.30
2022-08-12T10:23:40.087Z,1.38
2022-08-12T10:30:42.035Z,1.45
2022-08-12T10:33:32.269Z,1.60
2022-08-12T10:37:10.511Z,1.73
2022-08-12T10:40:38.150Z,1.70
2022-08-12T10:43:54.486Z,1.77
2022-08-12T10:52:33.304Z,1.50
2022-08-12T10:55:22.975Z,1.50
2022-08-12T10:58:30.881Z,1.70
2022-08-12T11:01:49.420Z,1.48
2022-08-12T11:08:37.319Z,1.65
2022-08-12T11:10:54.454Z,1.70
2022-08-12T11:13:46.110Z,1.67
2022-08-12T11:17:34.201Z,1.50
2022-08-12T11:20:48.005Z,1.80
2022-08-12T11:23:43.279Z,1.60
2022-08-12T11:27:11.338Z,1.40
2022-08-12T11:30:06.027Z,1.80
2022-08-12T11:32:47.216Z,1.60
2022-08-12T11:35:50.593Z,1.42
2022-08-12T11:48:05.523Z,1.50
2022-08-12T11:51:04.987Z,1.80
2022-08-12T11:54:19.493Z,1.50
2022-08-12T11:56:59.891Z,1.35
2022-08-12T12:02:41.477Z,1.50
2022-08-12T12:09:52.006Z,1.40
2022-08-12T12:13:23.293Z,1.67
2022-08-12T12:16:40.004Z,1.30
2022-08-12T12:20:10.080Z,1.40
2022-08-12T12:35:14.271Z,1.60
2022-08-12T12:38:20.117Z,1.48
2022-08-12T12:42:41.533Z,1.30
2022-08-12T12:48:25.846Z,0.90
2022-08-12T13:38:14.569Z,1.35
2022-08-12T13:42:21.913Z,1.20
2022-08-12T14:35:14.919Z,1.13
2022-08-12T14:44:59.476Z,1.40
2022-08-12T14:47:35.061Z,1.20
2022-08-12T14:50:58.127Z,1.50
2022-08-12T14:55:24.713Z,1.05
2022-08-12T14:57:20.016Z,1.50
2022-08-12T15:00:52.268Z,1.27
2022-08-12T15:04:34.200Z,1.23
2022-08-12T15:07:50.934Z,1.35
2022-08-12T15:11:54.508Z,1.05
2022-08-12T15:14:57.350Z,1.23
2022-08-12T15:24:14.031Z,1.30
2022-08-12T15:32:58.562Z,1.27
2022-08-12T15:35:52.173Z,1.42
2022-08-12T15:38:59.572Z,1.40
2022-08-12T15:42:18.300Z,1.33
2022-08-12T15:45:08.708Z,1.30
2022-08-12T15:48:17.026Z,1.20
2022-08-12T15:51:05.386Z,1.20
2022-08-12T15:54:35.181Z,1.42
2022-08-12T15:57:17.104Z,1.27
2022-08-12T16:00:06.443Z,1.30
2022-08-12T16:03:05.987Z,1.38
2022-08-12T16:06:16.820Z,1.50
2022-08-12T16:12:54.478Z,1.10
2022-08-12T16:15:51.214Z,1.50
2022-08-12T16:18:38.223Z,1.20
2022-08-12T16:27:57.184Z,1.55
2022-08-12T16:30:38.650Z,1.20
2022-08-12T16:33:59.789Z,1.42
2022-08-12T16:36:37.943Z,1.33
2022-08-12T16:39:13.349Z,1.20
2022-08-12T16:41:46.397Z,1.00
2022-08-12T16:44:19.766Z,1.27
2022-08-12T16:46:58.127Z,1.17
2022-08-12T16:49:43.631Z,1.00
2022-08-12T16:52:19.739Z,1.20
2022-08-12T16:57:58.071Z,1.20
2022-08-12T17:04:09.491Z,1.30
2022-08-12T17:06:47.373Z,1.00
2022-08-12T17:09:39.911Z,1.30
2022-08-12T17:23:09.756Z,1.08
2022-08-12T17:25:48.441Z,1.10
2022-08-12T17:31:09.972Z,1.20
2022-08-12T17:33:55.491Z,1.30
2022-08-12T17:42:31.149Z,1.27
2022-08-12T17:45:18.161Z,1.35
2022-08-12T17:48:21.737Z,1.25
2022-08-12T17:51:19.469Z,1.67
2022-08-12T17:54:11.063Z,1.30
2022-08-12T18:01:34.816Z,1.67
2022-08-12T18:04:35.962Z,1.60
2022-08-12T18:07:23.478Z,1.30
2022-08-12T18:11:11.888Z,1.13
2022-08-12T18:14:27.975Z,1.10
2022-08-12T18:22:09.229Z,1.20
2022-08-12T18:25:00.973Z,1.20
2022-08-12T18:27:45.752Z,1.40
2022-08-12T18:30:29.879Z,1.40
2022-08-12T18:36:55.810Z,1.48
2022-08-12T18:39:24.984Z,1.30
2022-08-12T18:42:17.605Z,1.25
2022-08-12T18:45:02.015Z,1.30
2022-08-12T18:47:49.865Z,1.40
2022-08-12T18:50:20.431Z,1.20
2022-08-12T18:56:34.249Z,1.30
2022-08-12T19:00:07.010Z,1.40
2022-08-12T19:12:05.846Z,0.88
2022-08-12T19:15:21.609Z,1.17
2022-08-12T19:18:03.192Z,1.20
2022-08-12T19:20:48.110Z,1.00
2022-08-12T19:23:35.308Z,1.13
2022-08-12T19:26:27.809Z,0.82
2022-08-12T19:29:05.205Z,0.90
2022-08-12T19:32:02.963Z,0.93
2022-08-12T19:38:29.756Z,1.08
2022-08-12T19:41:09.544Z,1.10
2022-08-12T19:44:00.541Z,1.05
2022-08-12T19:46:53.964Z,0.95
2022-08-12T19:49:34.075Z,1.38
2022-08-12T19:52:21.093Z,1.00
2022-08-12T19:55:02.712Z,1.02
2022-08-12T19:58:02.982Z,1.15
2022-08-12T20:01:26.585Z,1.38
2022-08-12T20:04:31.381Z,1.30
2022-08-12T20:07:23.905Z,1.20
2022-08-12T20:10:01.500Z,0.90
2022-08-12T20:13:10.340Z,1.02
2022-08-12T20:15:58.788Z,1.13
2022-08-12T20:18:58.101Z,1.10
2022-08-12T20:22:35.551Z,0.65
2022-08-12T20:28:14.191Z,1.20
2022-08-12T20:30:53.446Z,1.10
2022-08-12T20:33:50.707Z,0.88
2022-08-12T20:41:29.492Z,1.20
2022-08-12T20:48:09.368Z,1.15
2022-08-12T20:51:27.680Z,1.23
2022-08-12T20:54:06.550Z,1.00
2022-08-12T21:04:33.257Z,1.25
2022-08-12T21:07:47.663Z,1.10
2022-08-12T21:12:06.651Z,1.30
2022-08-12T21:15:23.677Z,0.98
2022-08-12T21:18:28.344Z,0.98
2022-08-12T21:21:23.795Z,0.88
2022-08-12T21:24:01.534Z,1.23
2022-08-12T21:32:39.100Z,0.98
2022-08-12T21:34:44.958Z,0.75
2022-08-12T21:37:53.276Z,1.13
2022-08-12T21:40:51.781Z,1.15
2022-08-12T21:44:03.929Z,1.10
2022-08-12T21:47:12.020Z,1.02
2022-08-12T21:50:07.364Z,1.30
2022-08-12T21:52:58.894Z,1.10
2022-08-12T21:55:57.376Z,1.40
2022-08-12T21:59:26.283Z,0.98
2022-08-12T22:02:34.288Z,1.20
2022-08-12T22:05:52.415Z,1.10
2022-08-12T22:08:57.409Z,0.90
2022-08-12T22:15:21.846Z,1.10
2022-08-12T22:18:11.931Z,1.02
2022-08-12T22:20:50.549Z,1.23
2022-08-12T22:23:28.465Z,1.08
2022-08-12T22:30:01.104Z,1.65
2022-08-12T22:32:33.832Z,0.98
2022-08-12T22:35:56.365Z,1.70
2022-08-12T22:38:29.162Z,0.95
2022-08-12T22:41:03.630Z,1.35
2022-08-12T22:44:03.755Z,1.10
2022-08-12T22:47:01.957Z,1.02
2022-08-12T22:49:53.338Z,1.15
2022-08-12T22:52:34.018Z,0.90
2022-08-12T22:55:10.411Z,1.20
2022-08-12T23:04:35.672Z,0.98
2022-08-12T23:07:08.449Z,1.05
2022-08-12T23:09:48.799Z,1.00
2022-08-12T23:12:50.105Z,1.50
2022-08-12T23:15:32.876Z,1.27
2022-08-12T23:18:19.008Z,1.45
2022-08-12T23:20:47.694Z,1.20
2022-08-12T23:23:20.665Z,1.50
2022-08-12T23:25:55.749Z,1.40
2022-08-12T23:28:55.562Z,1.30
2022-08-12T23:32:01.868Z,1.30
2022-08-12T23:34:50.593Z,1.50
2022-08-12T23:37:47.706Z,0.95
2022-08-12T23:40:29.996Z,1.33
2022-08-12T23:43:26.755Z,1.20
2022-08-12T23:46:26.658Z,1.00
2022-08-12T23:49:02.343Z,1.30
2022-08-12T23:51:38.911Z,1.10
2022-08-12T23:54:33.230Z,1.40
2022-08-12T23:57:21.755Z,1.30
2022-08-12T23:59:58.767Z,1.08
